sensor_id;sensor_type;location;lat;lon;timestamp;P1;durP1;ratioP1;P2;durP2;ratioP2
69030;SDS011;56083;48.774;8.942;2023-05-07T00:02:24;10.50;;;3.40;;
69030;SDS011;56083;48.774;8.942;2023-05-07T00:04:50;6.72;;;3.65;;
69030;SDS011;56083;48.774;8.942;2023-05-07T00:07:17;8.45;;;4.00;;
69030;SDS011;56083;48.774;8.942;2023-05-07T00:09:43;5.53;;;3.58;;
69030;SDS011;56083;48.774;8.942;2023-05-07T00:12:08;6.25;;;3.85;;
69030;SDS011;56083;48.774;8.942;2023-05-07T00:14:34;9.25;;;4.10;;
69030;SDS011;56083;48.774;8.942;2023-05-07T00:17:00;10.98;;;4.40;;
69030;SDS011;56083;48.774;8.942;2023-05-07T00:19:26;9.07;;;3.85;;
69030;SDS011;56083;48.774;8.942;2023-05-07T00:21:51;6.88;;;3.30;;
69030;SDS011;56083;48.774;8.942;2023-05-07T00:24:18;6.25;;;3.38;;
69030;SDS011;56083;48.774;8.942;2023-05-07T00:26:44;5.38;;;3.20;;
69030;SDS011;56083;48.774;8.942;2023-05-07T00:29:10;5.38;;;3.47;;
69030;SDS011;56083;48.774;8.942;2023-05-07T00:31:36;5.40;;;3.10;;
69030;SDS011;56083;48.774;8.942;2023-05-07T00:34:01;11.23;;;3.10;;
69030;SDS011;56083;48.774;8.942;2023-05-07T00:36:27;6.97;;;2.97;;
69030;SDS011;56083;48.774;8.942;2023-05-07T00:38:54;4.53;;;2.80;;
69030;SDS011;56083;48.774;8.942;2023-05-07T00:41:23;5.93;;;2.85;;
69030;SDS011;56083;48.774;8.942;2023-05-07T00:43:49;7.95;;;3.55;;
69030;SDS011;56083;48.774;8.942;2023-05-07T00:46:16;8.18;;;3.67;;
69030;SDS011;56083;48.774;8.942;2023-05-07T00:48:42;7.45;;;3.78;;
69030;SDS011;56083;48.774;8.942;2023-05-07T00:51:09;8.45;;;3.70;;
69030;SDS011;56083;48.774;8.942;2023-05-07T00:53:36;5.20;;;3.53;;
69030;SDS011;56083;48.774;8.942;2023-05-07T00:56:02;11.10;;;3.63;;
69030;SDS011;56083;48.774;8.942;2023-05-07T00:58:28;5.93;;;3.50;;
69030;SDS011;56083;48.774;8.942;2023-05-07T01:00:54;7.57;;;3.75;;
69030;SDS011;56083;48.774;8.942;2023-05-07T01:03:20;6.93;;;3.95;;
69030;SDS011;56083;48.774;8.942;2023-05-07T01:05:46;6.55;;;3.95;;
69030;SDS011;56083;48.774;8.942;2023-05-07T01:08:13;7.18;;;3.65;;
69030;SDS011;56083;48.774;8.942;2023-05-07T01:10:39;7.10;;;3.60;;
69030;SDS011;56083;48.774;8.942;2023-05-07T01:13:08;10.32;;;4.00;;
69030;SDS011;56083;48.774;8.942;2023-05-07T01:15:37;7.82;;;3.63;;
69030;SDS011;56083;48.774;8.942;2023-05-07T01:18:03;10.55;;;3.80;;
69030;SDS011;56083;48.774;8.942;2023-05-07T01:20:29;5.30;;;3.25;;
69030;SDS011;56083;48.774;8.942;2023-05-07T01:22:55;5.80;;;3.38;;
69030;SDS011;56083;48.774;8.942;2023-05-07T01:25:22;7.50;;;3.47;;
69030;SDS011;56083;48.774;8.942;2023-05-07T01:27:48;5.90;;;3.30;;
69030;SDS011;56083;48.774;8.942;2023-05-07T01:30:14;6.20;;;3.28;;
69030;SDS011;56083;48.774;8.942;2023-05-07T01:32:41;6.43;;;3.30;;
69030;SDS011;56083;48.774;8.942;2023-05-07T01:35:13;11.70;;;3.90;;
69030;SDS011;56083;48.774;8.942;2023-05-07T01:37:43;6.30;;;3.28;;
69030;SDS011;56083;48.774;8.942;2023-05-07T01:40:09;5.97;;;3.40;;
69030;SDS011;56083;48.774;8.942;2023-05-07T01:42:35;14.10;;;3.67;;
69030;SDS011;56083;48.774;8.942;2023-05-07T01:45:01;7.07;;;3.60;;
69030;SDS011;56083;48.774;8.942;2023-05-07T01:47:27;5.45;;;3.90;;
69030;SDS011;56083;48.774;8.942;2023-05-07T01:49:54;6.55;;;3.90;;
69030;SDS011;56083;48.774;8.942;2023-05-07T01:52:20;6.07;;;3.70;;
69030;SDS011;56083;48.774;8.942;2023-05-07T01:54:46;8.18;;;3.75;;
69030;SDS011;56083;48.774;8.942;2023-05-07T01:57:11;6.00;;;3.65;;
69030;SDS011;56083;48.774;8.942;2023-05-07T01:59:37;6.07;;;3.42;;
69030;SDS011;56083;48.774;8.942;2023-05-07T02:02:02;7.50;;;3.95;;
69030;SDS011;56083;48.774;8.942;2023-05-07T02:04:28;5.20;;;3.58;;
69030;SDS011;56083;48.774;8.942;2023-05-07T02:06:53;6.68;;;3.50;;
69030;SDS011;56083;48.774;8.942;2023-05-07T02:09:19;8.52;;;3.47;;
69030;SDS011;56083;48.774;8.942;2023-05-07T02:11:45;5.38;;;3.70;;
69030;SDS011;56083;48.774;8.942;2023-05-07T02:14:10;5.00;;;3.45;;
69030;SDS011;56083;48.774;8.942;2023-05-07T02:16:36;5.90;;;3.97;;
69030;SDS011;56083;48.774;8.942;2023-05-07T02:19:01;10.35;;;4.43;;
69030;SDS011;56083;48.774;8.942;2023-05-07T02:21:28;12.45;;;4.20;;
69030;SDS011;56083;48.774;8.942;2023-05-07T02:23:54;11.18;;;4.40;;
69030;SDS011;56083;48.774;8.942;2023-05-07T02:26:20;11.60;;;4.20;;
69030;SDS011;56083;48.774;8.942;2023-05-07T02:28:46;6.88;;;4.38;;
69030;SDS011;56083;48.774;8.942;2023-05-07T02:31:12;5.50;;;4.00;;
69030;SDS011;56083;48.774;8.942;2023-05-07T02:33:37;9.00;;;4.10;;
69030;SDS011;56083;48.774;8.942;2023-05-07T02:36:09;11.60;;;4.53;;
69030;SDS011;56083;48.774;8.942;2023-05-07T02:38:35;6.22;;;4.13;;
69030;SDS011;56083;48.774;8.942;2023-05-07T02:41:01;7.53;;;4.30;;
69030;SDS011;56083;48.774;8.942;2023-05-07T02:43:26;7.05;;;4.22;;
69030;SDS011;56083;48.774;8.942;2023-05-07T02:46:05;6.10;;;4.43;;
69030;SDS011;56083;48.774;8.942;2023-05-07T02:48:32;7.70;;;4.88;;
69030;SDS011;56083;48.774;8.942;2023-05-07T02:50:58;9.48;;;4.40;;
69030;SDS011;56083;48.774;8.942;2023-05-07T02:53:24;7.47;;;4.35;;
69030;SDS011;56083;48.774;8.942;2023-05-07T02:55:58;8.10;;;4.68;;
69030;SDS011;56083;48.774;8.942;2023-05-07T02:58:25;7.03;;;4.70;;
69030;SDS011;56083;48.774;8.942;2023-05-07T03:00:51;9.45;;;5.07;;
69030;SDS011;56083;48.774;8.942;2023-05-07T03:03:17;11.43;;;5.32;;
69030;SDS011;56083;48.774;8.942;2023-05-07T03:05:44;9.20;;;4.95;;
69030;SDS011;56083;48.774;8.942;2023-05-07T03:08:10;9.02;;;5.30;;
69030;SDS011;56083;48.774;8.942;2023-05-07T03:10:36;9.43;;;5.40;;
69030;SDS011;56083;48.774;8.942;2023-05-07T03:13:02;10.95;;;5.75;;
69030;SDS011;56083;48.774;8.942;2023-05-07T03:15:28;10.07;;;5.45;;
69030;SDS011;56083;48.774;8.942;2023-05-07T03:17:53;9.80;;;5.68;;
69030;SDS011;56083;48.774;8.942;2023-05-07T03:20:19;9.00;;;6.00;;
69030;SDS011;56083;48.774;8.942;2023-05-07T03:22:45;10.20;;;6.57;;
69030;SDS011;56083;48.774;8.942;2023-05-07T03:25:10;11.77;;;5.65;;
69030;SDS011;56083;48.774;8.942;2023-05-07T03:27:36;14.25;;;6.32;;
69030;SDS011;56083;48.774;8.942;2023-05-07T03:30:02;9.57;;;5.95;;
69030;SDS011;56083;48.774;8.942;2023-05-07T03:32:27;9.07;;;5.75;;
69030;SDS011;56083;48.774;8.942;2023-05-07T03:34:53;8.73;;;6.10;;
69030;SDS011;56083;48.774;8.942;2023-05-07T03:37:19;10.60;;;5.47;;
69030;SDS011;56083;48.774;8.942;2023-05-07T03:39:44;9.70;;;5.57;;
69030;SDS011;56083;48.774;8.942;2023-05-07T03:42:10;10.70;;;5.53;;
69030;SDS011;56083;48.774;8.942;2023-05-07T03:44:36;10.48;;;5.30;;
69030;SDS011;56083;48.774;8.942;2023-05-07T03:47:03;9.60;;;5.30;;
69030;SDS011;56083;48.774;8.942;2023-05-07T03:49:29;8.75;;;5.40;;
69030;SDS011;56083;48.774;8.942;2023-05-07T03:51:54;11.68;;;5.05;;
69030;SDS011;56083;48.774;8.942;2023-05-07T03:54:20;13.63;;;4.95;;
69030;SDS011;56083;48.774;8.942;2023-05-07T03:56:46;6.43;;;4.65;;
69030;SDS011;56083;48.774;8.942;2023-05-07T03:59:12;8.70;;;4.65;;
69030;SDS011;56083;48.774;8.942;2023-05-07T04:01:38;6.03;;;4.43;;
69030;SDS011;56083;48.774;8.942;2023-05-07T04:04:03;7.80;;;4.63;;
69030;SDS011;56083;48.774;8.942;2023-05-07T04:06:30;15.25;;;4.80;;
69030;SDS011;56083;48.774;8.942;2023-05-07T04:08:56;11.55;;;5.20;;
69030;SDS011;56083;48.774;8.942;2023-05-07T04:11:21;9.93;;;5.15;;
69030;SDS011;56083;48.774;8.942;2023-05-07T04:13:47;9.07;;;5.32;;
69030;SDS011;56083;48.774;8.942;2023-05-07T04:16:12;8.10;;;5.18;;
69030;SDS011;56083;48.774;8.942;2023-05-07T04:18:38;8.95;;;5.00;;
69030;SDS011;56083;48.774;8.942;2023-05-07T04:21:04;9.77;;;5.00;;
69030;SDS011;56083;48.774;8.942;2023-05-07T04:23:30;6.97;;;4.88;;
69030;SDS011;56083;48.774;8.942;2023-05-07T04:25:55;8.95;;;5.30;;
69030;SDS011;56083;48.774;8.942;2023-05-07T04:28:22;8.50;;;5.18;;
69030;SDS011;56083;48.774;8.942;2023-05-07T04:30:48;9.32;;;5.47;;
69030;SDS011;56083;48.774;8.942;2023-05-07T04:33:16;12.00;;;5.65;;
69030;SDS011;56083;48.774;8.942;2023-05-07T04:35:42;9.63;;;5.40;;
69030;SDS011;56083;48.774;8.942;2023-05-07T04:38:08;8.35;;;4.93;;
69030;SDS011;56083;48.774;8.942;2023-05-07T04:40:35;9.23;;;5.30;;
69030;SDS011;56083;48.774;8.942;2023-05-07T04:43:01;18.55;;;5.60;;
69030;SDS011;56083;48.774;8.942;2023-05-07T04:45:26;7.78;;;5.05;;
69030;SDS011;56083;48.774;8.942;2023-05-07T04:47:52;6.97;;;5.15;;
69030;SDS011;56083;48.774;8.942;2023-05-07T04:50:17;9.90;;;4.88;;
69030;SDS011;56083;48.774;8.942;2023-05-07T04:52:44;9.07;;;5.10;;
69030;SDS011;56083;48.774;8.942;2023-05-07T04:55:10;8.07;;;5.03;;
69030;SDS011;56083;48.774;8.942;2023-05-07T04:57:36;7.78;;;5.35;;
69030;SDS011;56083;48.774;8.942;2023-05-07T05:00:04;10.05;;;4.78;;
69030;SDS011;56083;48.774;8.942;2023-05-07T05:02:30;8.02;;;5.30;;
69030;SDS011;56083;48.774;8.942;2023-05-07T05:04:56;8.40;;;5.10;;
69030;SDS011;56083;48.774;8.942;2023-05-07T05:07:21;9.77;;;4.95;;
69030;SDS011;56083;48.774;8.942;2023-05-07T05:09:47;9.07;;;4.82;;
69030;SDS011;56083;48.774;8.942;2023-05-07T05:12:12;9.95;;;4.75;;
69030;SDS011;56083;48.774;8.942;2023-05-07T05:14:38;9.55;;;4.45;;
69030;SDS011;56083;48.774;8.942;2023-05-07T05:17:04;10.02;;;4.55;;
69030;SDS011;56083;48.774;8.942;2023-05-07T05:19:29;7.20;;;3.80;;
69030;SDS011;56083;48.774;8.942;2023-05-07T05:21:55;9.10;;;3.85;;
69030;SDS011;56083;48.774;8.942;2023-05-07T05:24:21;9.65;;;3.88;;
69030;SDS011;56083;48.774;8.942;2023-05-07T05:26:46;12.80;;;3.83;;
69030;SDS011;56083;48.774;8.942;2023-05-07T05:29:12;6.57;;;3.92;;
69030;SDS011;56083;48.774;8.942;2023-05-07T05:31:38;8.50;;;4.13;;
69030;SDS011;56083;48.774;8.942;2023-05-07T05:34:03;6.32;;;3.53;;
69030;SDS011;56083;48.774;8.942;2023-05-07T05:36:29;8.80;;;4.10;;
69030;SDS011;56083;48.774;8.942;2023-05-07T05:38:55;4.68;;;3.65;;
69030;SDS011;56083;48.774;8.942;2023-05-07T05:41:21;10.35;;;3.88;;
69030;SDS011;56083;48.774;8.942;2023-05-07T05:43:46;6.53;;;4.18;;
69030;SDS011;56083;48.774;8.942;2023-05-07T05:46:12;6.45;;;3.92;;
69030;SDS011;56083;48.774;8.942;2023-05-07T05:48:37;6.75;;;3.78;;
69030;SDS011;56083;48.774;8.942;2023-05-07T05:51:03;15.52;;;4.00;;
69030;SDS011;56083;48.774;8.942;2023-05-07T05:53:29;11.10;;;4.00;;
69030;SDS011;56083;48.774;8.942;2023-05-07T05:55:54;5.22;;;3.85;;
69030;SDS011;56083;48.774;8.942;2023-05-07T05:58:20;8.32;;;4.00;;
69030;SDS011;56083;48.774;8.942;2023-05-07T06:00:46;6.63;;;4.40;;
69030;SDS011;56083;48.774;8.942;2023-05-07T06:03:13;6.97;;;4.60;;
69030;SDS011;56083;48.774;8.942;2023-05-07T06:05:38;7.95;;;4.57;;
69030;SDS011;56083;48.774;8.942;2023-05-07T06:08:04;8.10;;;4.57;;
69030;SDS011;56083;48.774;8.942;2023-05-07T06:10:30;11.98;;;4.65;;
69030;SDS011;56083;48.774;8.942;2023-05-07T06:12:56;8.60;;;4.68;;
69030;SDS011;56083;48.774;8.942;2023-05-07T06:15:22;10.18;;;4.65;;
69030;SDS011;56083;48.774;8.942;2023-05-07T06:17:47;6.13;;;3.97;;
69030;SDS011;56083;48.774;8.942;2023-05-07T06:20:14;10.60;;;3.88;;
69030;SDS011;56083;48.774;8.942;2023-05-07T06:22:40;6.28;;;3.55;;
69030;SDS011;56083;48.774;8.942;2023-05-07T06:25:05;8.18;;;3.55;;
69030;SDS011;56083;48.774;8.942;2023-05-07T06:27:32;7.63;;;4.05;;
69030;SDS011;56083;48.774;8.942;2023-05-07T06:29:57;7.60;;;4.20;;
69030;SDS011;56083;48.774;8.942;2023-05-07T06:32:23;6.82;;;3.60;;
69030;SDS011;56083;48.774;8.942;2023-05-07T06:34:48;7.40;;;3.63;;
69030;SDS011;56083;48.774;8.942;2023-05-07T06:37:14;5.93;;;3.60;;
69030;SDS011;56083;48.774;8.942;2023-05-07T06:39:40;11.40;;;4.60;;
69030;SDS011;56083;48.774;8.942;2023-05-07T06:42:05;7.75;;;3.85;;
69030;SDS011;56083;48.774;8.942;2023-05-07T06:44:31;8.23;;;3.65;;
69030;SDS011;56083;48.774;8.942;2023-05-07T06:46:57;5.65;;;3.80;;
69030;SDS011;56083;48.774;8.942;2023-05-07T06:49:23;5.82;;;3.50;;
69030;SDS011;56083;48.774;8.942;2023-05-07T06:51:49;7.25;;;3.35;;
69030;SDS011;56083;48.774;8.942;2023-05-07T06:54:14;4.57;;;3.33;;
69030;SDS011;56083;48.774;8.942;2023-05-07T06:56:40;6.90;;;3.63;;
69030;SDS011;56083;48.774;8.942;2023-05-07T06:59:06;10.90;;;3.50;;
69030;SDS011;56083;48.774;8.942;2023-05-07T07:01:32;7.38;;;2.72;;
69030;SDS011;56083;48.774;8.942;2023-05-07T07:03:58;4.78;;;2.90;;
69030;SDS011;56083;48.774;8.942;2023-05-07T07:06:23;5.50;;;2.75;;
69030;SDS011;56083;48.774;8.942;2023-05-07T07:08:49;3.33;;;2.38;;
69030;SDS011;56083;48.774;8.942;2023-05-07T07:11:14;7.60;;;2.20;;
69030;SDS011;56083;48.774;8.942;2023-05-07T07:13:40;3.38;;;2.22;;
69030;SDS011;56083;48.774;8.942;2023-05-07T07:16:07;3.83;;;1.90;;
69030;SDS011;56083;48.774;8.942;2023-05-07T07:18:33;5.22;;;2.28;;
69030;SDS011;56083;48.774;8.942;2023-05-07T07:21:00;5.28;;;2.00;;
69030;SDS011;56083;48.774;8.942;2023-05-07T07:23:25;5.60;;;2.05;;
69030;SDS011;56083;48.774;8.942;2023-05-07T07:25:51;2.67;;;1.52;;
69030;SDS011;56083;48.774;8.942;2023-05-07T07:28:17;2.67;;;1.92;;
69030;SDS011;56083;48.774;8.942;2023-05-07T07:30:42;3.95;;;2.10;;
69030;SDS011;56083;48.774;8.942;2023-05-07T07:33:08;6.15;;;2.30;;
69030;SDS011;56083;48.774;8.942;2023-05-07T07:35:34;6.85;;;2.40;;
69030;SDS011;56083;48.774;8.942;2023-05-07T07:38:00;7.20;;;2.42;;
69030;SDS011;56083;48.774;8.942;2023-05-07T07:40:26;6.18;;;2.80;;
69030;SDS011;56083;48.774;8.942;2023-05-07T07:42:52;7.90;;;2.00;;
69030;SDS011;56083;48.774;8.942;2023-05-07T07:45:18;4.65;;;2.45;;
69030;SDS011;56083;48.774;8.942;2023-05-07T07:47:44;6.72;;;2.63;;
69030;SDS011;56083;48.774;8.942;2023-05-07T07:50:10;5.30;;;1.92;;
69030;SDS011;56083;48.774;8.942;2023-05-07T07:52:36;3.20;;;2.20;;
69030;SDS011;56083;48.774;8.942;2023-05-07T07:55:02;2.50;;;1.80;;
69030;SDS011;56083;48.774;8.942;2023-05-07T07:57:28;3.90;;;1.98;;
69030;SDS011;56083;48.774;8.942;2023-05-07T07:59:54;6.72;;;2.17;;
69030;SDS011;56083;48.774;8.942;2023-05-07T08:02:20;5.80;;;2.25;;
69030;SDS011;56083;48.774;8.942;2023-05-07T08:04:45;5.05;;;2.00;;
69030;SDS011;56083;48.774;8.942;2023-05-07T08:07:11;7.93;;;1.90;;
69030;SDS011;56083;48.774;8.942;2023-05-07T08:09:37;3.33;;;1.60;;
69030;SDS011;56083;48.774;8.942;2023-05-07T08:12:05;4.05;;;1.90;;
69030;SDS011;56083;48.774;8.942;2023-05-07T08:14:31;4.13;;;1.70;;
69030;SDS011;56083;48.774;8.942;2023-05-07T08:16:56;4.60;;;1.80;;
69030;SDS011;56083;48.774;8.942;2023-05-07T08:19:22;3.03;;;1.77;;
69030;SDS011;56083;48.774;8.942;2023-05-07T08:21:48;3.72;;;1.95;;
69030;SDS011;56083;48.774;8.942;2023-05-07T08:24:14;1.73;;;1.40;;
69030;SDS011;56083;48.774;8.942;2023-05-07T08:26:40;4.28;;;1.50;;
69030;SDS011;56083;48.774;8.942;2023-05-07T08:29:06;3.70;;;1.38;;
69030;SDS011;56083;48.774;8.942;2023-05-07T08:31:31;3.47;;;1.35;;
69030;SDS011;56083;48.774;8.942;2023-05-07T08:33:57;5.50;;;1.33;;
69030;SDS011;56083;48.774;8.942;2023-05-07T08:36:23;2.95;;;1.40;;
69030;SDS011;56083;48.774;8.942;2023-05-07T08:38:50;5.22;;;1.33;;
69030;SDS011;56083;48.774;8.942;2023-05-07T08:41:16;2.92;;;1.60;;
69030;SDS011;56083;48.774;8.942;2023-05-07T08:43:41;3.75;;;1.40;;
69030;SDS011;56083;48.774;8.942;2023-05-07T08:46:10;2.40;;;1.20;;
69030;SDS011;56083;48.774;8.942;2023-05-07T08:48:36;2.47;;;1.40;;
69030;SDS011;56083;48.774;8.942;2023-05-07T08:51:02;2.58;;;1.45;;
69030;SDS011;56083;48.774;8.942;2023-05-07T08:53:28;3.92;;;1.40;;
69030;SDS011;56083;48.774;8.942;2023-05-07T08:55:54;7.75;;;1.40;;
69030;SDS011;56083;48.774;8.942;2023-05-07T08:58:20;3.72;;;1.40;;
69030;SDS011;56083;48.774;8.942;2023-05-07T09:00:48;5.13;;;1.38;;
69030;SDS011;56083;48.774;8.942;2023-05-07T09:03:14;3.50;;;1.52;;
69030;SDS011;56083;48.774;8.942;2023-05-07T09:05:39;3.38;;;1.50;;
69030;SDS011;56083;48.774;8.942;2023-05-07T09:08:08;1.60;;;1.20;;
69030;SDS011;56083;48.774;8.942;2023-05-07T09:10:33;2.67;;;1.30;;
69030;SDS011;56083;48.774;8.942;2023-05-07T09:12:59;2.72;;;1.30;;
69030;SDS011;56083;48.774;8.942;2023-05-07T09:15:25;4.07;;;1.40;;
69030;SDS011;56083;48.774;8.942;2023-05-07T09:17:51;4.65;;;1.70;;
69030;SDS011;56083;48.774;8.942;2023-05-07T09:20:18;4.97;;;1.50;;
69030;SDS011;56083;48.774;8.942;2023-05-07T09:22:43;6.50;;;1.63;;
69030;SDS011;56083;48.774;8.942;2023-05-07T09:25:09;4.55;;;1.20;;
69030;SDS011;56083;48.774;8.942;2023-05-07T09:27:35;3.00;;;1.20;;
69030;SDS011;56083;48.774;8.942;2023-05-07T09:30:04;3.55;;;1.40;;
69030;SDS011;56083;48.774;8.942;2023-05-07T09:32:36;4.07;;;1.63;;
69030;SDS011;56083;48.774;8.942;2023-05-07T09:35:05;2.25;;;1.38;;
69030;SDS011;56083;48.774;8.942;2023-05-07T09:37:32;5.13;;;1.80;;
69030;SDS011;56083;48.774;8.942;2023-05-07T09:39:58;1.60;;;1.30;;
69030;SDS011;56083;48.774;8.942;2023-05-07T09:42:23;4.18;;;1.30;;
69030;SDS011;56083;48.774;8.942;2023-05-07T09:44:51;4.43;;;1.20;;
69030;SDS011;56083;48.774;8.942;2023-05-07T09:47:20;5.00;;;1.40;;
69030;SDS011;56083;48.774;8.942;2023-05-07T09:49:50;6.38;;;1.67;;
69030;SDS011;56083;48.774;8.942;2023-05-07T09:52:20;2.55;;;1.45;;
69030;SDS011;56083;48.774;8.942;2023-05-07T09:54:46;3.33;;;1.30;;
69030;SDS011;56083;48.774;8.942;2023-05-07T09:57:14;2.10;;;1.23;;
69030;SDS011;56083;48.774;8.942;2023-05-07T09:59:42;2.72;;;1.35;;
69030;SDS011;56083;48.774;8.942;2023-05-07T10:02:09;2.40;;;1.10;;
69030;SDS011;56083;48.774;8.942;2023-05-07T10:04:35;3.42;;;1.33;;
69030;SDS011;56083;48.774;8.942;2023-05-07T10:07:01;1.42;;;1.23;;
69030;SDS011;56083;48.774;8.942;2023-05-07T10:09:29;4.43;;;1.48;;
69030;SDS011;56083;48.774;8.942;2023-05-07T10:11:56;3.17;;;1.40;;
69030;SDS011;56083;48.774;8.942;2023-05-07T10:14:22;4.55;;;1.60;;
69030;SDS011;56083;48.774;8.942;2023-05-07T10:16:49;5.20;;;1.63;;
69030;SDS011;56083;48.774;8.942;2023-05-07T10:19:15;4.75;;;1.63;;
69030;SDS011;56083;48.774;8.942;2023-05-07T10:21:53;4.53;;;1.52;;
69030;SDS011;56083;48.774;8.942;2023-05-07T10:24:24;2.92;;;1.42;;
69030;SDS011;56083;48.774;8.942;2023-05-07T10:26:52;5.72;;;1.80;;
69030;SDS011;56083;48.774;8.942;2023-05-07T10:31:55;3.22;;;1.45;;
69030;SDS011;56083;48.774;8.942;2023-05-07T10:34:29;3.85;;;1.48;;
69030;SDS011;56083;48.774;8.942;2023-05-07T10:37:01;2.97;;;1.48;;
69030;SDS011;56083;48.774;8.942;2023-05-07T10:39:28;4.13;;;1.77;;
69030;SDS011;56083;48.774;8.942;2023-05-07T10:41:54;3.03;;;1.52;;
69030;SDS011;56083;48.774;8.942;2023-05-07T10:44:26;3.28;;;1.50;;
69030;SDS011;56083;48.774;8.942;2023-05-07T10:49:35;3.15;;;1.45;;
69030;SDS011;56083;48.774;8.942;2023-05-07T10:55:18;5.30;;;1.90;;
69030;SDS011;56083;48.774;8.942;2023-05-07T10:57:46;5.07;;;1.55;;
69030;SDS011;56083;48.774;8.942;2023-05-07T11:05:24;6.78;;;1.83;;
69030;SDS011;56083;48.774;8.942;2023-05-07T11:07:56;5.25;;;1.85;;
69030;SDS011;56083;48.774;8.942;2023-05-07T11:13:18;2.30;;;1.55;;
69030;SDS011;56083;48.774;8.942;2023-05-07T11:16:04;3.47;;;2.10;;
69030;SDS011;56083;48.774;8.942;2023-05-07T11:18:45;5.15;;;1.90;;
69030;SDS011;56083;48.774;8.942;2023-05-07T11:21:13;6.28;;;2.60;;
69030;SDS011;56083;48.774;8.942;2023-05-07T11:23:56;6.15;;;2.40;;
69030;SDS011;56083;48.774;8.942;2023-05-07T11:26:23;8.75;;;2.20;;
69030;SDS011;56083;48.774;8.942;2023-05-07T11:28:50;5.13;;;1.88;;
69030;SDS011;56083;48.774;8.942;2023-05-07T11:31:20;4.70;;;2.17;;
69030;SDS011;56083;48.774;8.942;2023-05-07T11:33:51;6.63;;;1.85;;
69030;SDS011;56083;48.774;8.942;2023-05-07T11:36:18;4.55;;;2.13;;
69030;SDS011;56083;48.774;8.942;2023-05-07T11:38:45;7.55;;;2.10;;
69030;SDS011;56083;48.774;8.942;2023-05-07T11:41:11;9.13;;;2.38;;
69030;SDS011;56083;48.774;8.942;2023-05-07T11:43:37;3.92;;;2.10;;
69030;SDS011;56083;48.774;8.942;2023-05-07T11:46:11;3.28;;;2.20;;
69030;SDS011;56083;48.774;8.942;2023-05-07T11:48:37;4.88;;;2.40;;
69030;SDS011;56083;48.774;8.942;2023-05-07T11:51:04;2.92;;;2.35;;
69030;SDS011;56083;48.774;8.942;2023-05-07T11:53:36;6.47;;;2.38;;
69030;SDS011;56083;48.774;8.942;2023-05-07T11:56:06;4.78;;;2.30;;
69030;SDS011;56083;48.774;8.942;2023-05-07T11:58:36;4.85;;;2.22;;
69030;SDS011;56083;48.774;8.942;2023-05-07T12:01:02;7.38;;;2.70;;
69030;SDS011;56083;48.774;8.942;2023-05-07T12:03:29;7.32;;;2.10;;
69030;SDS011;56083;48.774;8.942;2023-05-07T12:05:54;5.60;;;2.30;;
69030;SDS011;56083;48.774;8.942;2023-05-07T12:08:20;12.57;;;1.80;;
69030;SDS011;56083;48.774;8.942;2023-05-07T12:10:48;6.95;;;1.70;;
69030;SDS011;56083;48.774;8.942;2023-05-07T12:13:18;5.50;;;1.90;;
69030;SDS011;56083;48.774;8.942;2023-05-07T12:15:45;8.45;;;1.60;;
69030;SDS011;56083;48.774;8.942;2023-05-07T12:18:11;6.70;;;1.88;;
69030;SDS011;56083;48.774;8.942;2023-05-07T12:20:37;7.47;;;1.80;;
69030;SDS011;56083;48.774;8.942;2023-05-07T12:23:03;9.15;;;2.35;;
69030;SDS011;56083;48.774;8.942;2023-05-07T12:25:30;10.02;;;2.20;;
69030;SDS011;56083;48.774;8.942;2023-05-07T12:27:56;10.65;;;2.40;;
69030;SDS011;56083;48.774;8.942;2023-05-07T12:30:24;11.57;;;2.60;;
69030;SDS011;56083;48.774;8.942;2023-05-07T12:32:53;7.78;;;2.10;;
69030;SDS011;56083;48.774;8.942;2023-05-07T12:35:26;5.57;;;2.20;;
69030;SDS011;56083;48.774;8.942;2023-05-07T12:37:56;4.13;;;1.60;;
69030;SDS011;56083;48.774;8.942;2023-05-07T12:40:35;4.03;;;1.58;;
69030;SDS011;56083;48.774;8.942;2023-05-07T12:43:05;1.25;;;1.10;;
69030;SDS011;56083;48.774;8.942;2023-05-07T12:45:31;3.13;;;1.38;;
69030;SDS011;56083;48.774;8.942;2023-05-07T12:48:03;4.63;;;1.60;;
69030;SDS011;56083;48.774;8.942;2023-05-07T12:50:32;4.38;;;1.75;;
69030;SDS011;56083;48.774;8.942;2023-05-07T12:52:58;7.00;;;2.17;;
69030;SDS011;56083;48.774;8.942;2023-05-07T12:55:24;5.25;;;2.10;;
69030;SDS011;56083;48.774;8.942;2023-05-07T12:57:50;5.10;;;2.10;;
69030;SDS011;56083;48.774;8.942;2023-05-07T13:00:18;5.65;;;2.20;;
69030;SDS011;56083;48.774;8.942;2023-05-07T13:03:03;5.40;;;1.75;;
69030;SDS011;56083;48.774;8.942;2023-05-07T13:05:30;4.28;;;1.42;;
69030;SDS011;56083;48.774;8.942;2023-05-07T13:07:56;4.00;;;1.65;;
69030;SDS011;56083;48.774;8.942;2023-05-07T13:10:22;6.28;;;1.92;;
69030;SDS011;56083;48.774;8.942;2023-05-07T13:12:49;7.28;;;1.95;;
69030;SDS011;56083;48.774;8.942;2023-05-07T13:15:15;5.90;;;1.85;;
69030;SDS011;56083;48.774;8.942;2023-05-07T13:17:41;3.85;;;1.70;;
69030;SDS011;56083;48.774;8.942;2023-05-07T13:20:08;8.40;;;2.00;;
69030;SDS011;56083;48.774;8.942;2023-05-07T13:22:34;4.93;;;1.80;;
69030;SDS011;56083;48.774;8.942;2023-05-07T13:25:00;5.35;;;1.88;;
69030;SDS011;56083;48.774;8.942;2023-05-07T13:27:26;4.28;;;2.03;;
69030;SDS011;56083;48.774;8.942;2023-05-07T13:29:52;10.20;;;2.00;;
69030;SDS011;56083;48.774;8.942;2023-05-07T13:32:17;6.10;;;2.78;;
69030;SDS011;56083;48.774;8.942;2023-05-07T13:34:44;10.13;;;2.53;;
69030;SDS011;56083;48.774;8.942;2023-05-07T13:37:10;5.95;;;2.55;;
69030;SDS011;56083;48.774;8.942;2023-05-07T13:39:35;5.82;;;2.78;;
69030;SDS011;56083;48.774;8.942;2023-05-07T13:42:01;8.73;;;2.63;;
69030;SDS011;56083;48.774;8.942;2023-05-07T13:44:27;8.07;;;2.75;;
69030;SDS011;56083;48.774;8.942;2023-05-07T13:46:52;4.93;;;2.35;;
69030;SDS011;56083;48.774;8.942;2023-05-07T13:49:18;6.25;;;2.13;;
69030;SDS011;56083;48.774;8.942;2023-05-07T13:51:44;6.53;;;2.38;;
69030;SDS011;56083;48.774;8.942;2023-05-07T13:54:10;5.97;;;1.98;;
69030;SDS011;56083;48.774;8.942;2023-05-07T13:56:36;7.03;;;1.95;;
69030;SDS011;56083;48.774;8.942;2023-05-07T13:59:01;8.85;;;2.13;;
69030;SDS011;56083;48.774;8.942;2023-05-07T14:01:27;5.63;;;2.22;;
69030;SDS011;56083;48.774;8.942;2023-05-07T14:03:53;5.70;;;2.75;;
69030;SDS011;56083;48.774;8.942;2023-05-07T14:06:18;5.70;;;2.30;;
69030;SDS011;56083;48.774;8.942;2023-05-07T14:08:44;6.43;;;2.58;;
69030;SDS011;56083;48.774;8.942;2023-05-07T14:11:10;6.00;;;2.63;;
69030;SDS011;56083;48.774;8.942;2023-05-07T14:13:35;5.13;;;2.53;;
69030;SDS011;56083;48.774;8.942;2023-05-07T14:16:01;5.25;;;2.70;;
69030;SDS011;56083;48.774;8.942;2023-05-07T14:18:27;9.27;;;2.67;;
69030;SDS011;56083;48.774;8.942;2023-05-07T14:20:54;5.80;;;2.92;;
69030;SDS011;56083;48.774;8.942;2023-05-07T14:23:19;6.75;;;3.08;;
69030;SDS011;56083;48.774;8.942;2023-05-07T14:25:50;6.65;;;3.13;;
69030;SDS011;56083;48.774;8.942;2023-05-07T14:28:16;6.07;;;3.15;;
69030;SDS011;56083;48.774;8.942;2023-05-07T14:30:41;14.07;;;3.33;;
69030;SDS011;56083;48.774;8.942;2023-05-07T14:33:07;8.57;;;4.03;;
69030;SDS011;56083;48.774;8.942;2023-05-07T14:35:32;8.15;;;3.97;;
69030;SDS011;56083;48.774;8.942;2023-05-07T14:37:58;12.20;;;5.15;;
69030;SDS011;56083;48.774;8.942;2023-05-07T14:40:23;13.57;;;6.18;;
69030;SDS011;56083;48.774;8.942;2023-05-07T14:42:49;8.95;;;4.57;;
69030;SDS011;56083;48.774;8.942;2023-05-07T14:45:15;7.57;;;3.80;;
69030;SDS011;56083;48.774;8.942;2023-05-07T14:47:40;7.32;;;3.40;;
69030;SDS011;56083;48.774;8.942;2023-05-07T14:50:06;6.97;;;3.85;;
69030;SDS011;56083;48.774;8.942;2023-05-07T14:52:32;7.72;;;3.78;;
69030;SDS011;56083;48.774;8.942;2023-05-07T14:54:58;9.77;;;3.88;;
69030;SDS011;56083;48.774;8.942;2023-05-07T14:57:23;6.93;;;3.25;;
69030;SDS011;56083;48.774;8.942;2023-05-07T14:59:49;9.27;;;3.53;;